Terminal Aerodrome Forecast
Issued by NWS Louisville, KY

Home | Current Version | Previous Version | Text Only | Print | Product List | Glossary On
Versions: 1 2 3 4 5 6 7 8 9 10 11 12 13 14 15 16 17 18 19 20 21
263
FTUS43 KLMK 290110 AAB
TAFLEX
TAF AMD
KLEX 290110Z 2901/2924 VRB06KT P6SM VCSH BKN040
     FM290200 VRB06KT 5SM -SHRA BR BKN040
     FM290400 20004KT 5SM BR BKN021
     FM290800 20004KT 2SM BR BKN009
     FM291500 25006KT P6SM BKN025
     FM291800 26006KT P6SM SCT025 BKN050=

USA.gov is the U.S. government's official web portal to all federal, state and local government web resources and services.